Time;durP1;ratioP1;P1;durP2;ratioP2;P2;SDS_P1;SDS_P2;PMS_P1;PMS_P2;Temp;Humidity;BMP_temperature;BMP_pressure;BME280_temperature;BME280_humidity;BME280_pressure;Samples;Min_cycle;Max_cycle;Signal;HPM_P1;HPM_P2
2022/01/18 00:01:58;;;;;;;;;;;;;;;-8.38;78.27;100841.22;5113968;28;20370;-71
2022/01/18 00:04:27;;;;;;;;;;;;;;;-8.35;78.20;100849.75;5113948;28;19963;-71
2022/01/18 00:06:54;;;;;;;;;;;;;;;-8.31;78.59;100853.19;5113949;28;19924;-71
2022/01/18 00:09:23;;;;;;;;;;;;;;;-8.41;78.85;100853.81;5113748;28;20433;-72
2022/01/18 00:11:57;;;;;;;;;;;;;;;-8.50;78.76;100841.84;5113746;28;20037;-72
2022/01/18 00:14:26;;;;;;;;;;;;;;;-8.52;78.72;100853.56;5113667;28;19986;-72
2022/01/18 00:17:15;;;;;;;;;;;;;;;-8.53;78.90;100848.47;5113878;28;20331;-72
2022/01/18 00:19:52;;;;;;;;;;;;;;;-8.47;78.72;100854.53;5113791;28;19923;-72
2022/01/18 00:22:19;;;;;;;;;;;;;;;-8.60;79.21;100860.09;5113912;28;19927;-72
2022/01/18 00:24:45;;;;;;;;;;;;;;;-8.56;78.62;100864.38;5113843;28;19962;-72
2022/01/18 00:27:15;;;;;;;;;;;;;;;-8.49;79.24;100860.34;5113746;28;19930;-71
2022/01/18 00:29:50;;;;;;;;;;;;;;;-8.48;79.24;100867.94;5113487;28;19927;-71
2022/01/18 00:32:25;;;;;;;;;;;;;;;-8.54;78.87;100877.88;5113749;28;19930;-71
2022/01/18 00:34:56;;;;;;;;;;;;;;;-8.56;78.93;100887.94;5113705;28;19927;-74
2022/01/18 00:37:35;;;;;;;;;;;;;;;-8.50;79.00;100889.78;5113587;28;20327;-72
2022/01/18 00:40:02;;;;;;;;;;;;;;;-8.57;78.52;100888.75;5113341;28;19977;-73
2022/01/18 00:42:28;;;;;;;;;;;;;;;-8.51;78.32;100888.06;5113263;28;19923;-73
2022/01/18 00:44:55;;;;;;;;;;;;;;;-8.47;77.90;100907.50;5113174;28;19924;-72
2022/01/18 00:47:22;;;;;;;;;;;;;;;-8.48;78.00;100912.50;5113335;28;20392;-72
2022/01/18 00:49:56;;;;;;;;;;;;;;;-8.43;77.43;100916.84;5113300;28;19928;-72
2022/01/18 00:52:25;;;;;;;;;;;;;;;-8.35;77.39;100922.94;5113066;28;20431;-72
2022/01/18 00:54:52;;;;;;;;;;;;;;;-8.40;78.01;100919.47;5112830;28;19923;-73
2022/01/18 00:57:19;;;;;;;;;;;;;;;-8.40;78.28;100921.13;5113179;28;20384;-71
2022/01/18 00:59:47;;;;;;;;;;;;;;;-8.46;77.82;100924.34;5113041;28;19923;-73
2022/01/18 01:02:14;;;;;;;;;;;;;;;-8.47;78.08;100936.94;5113241;28;19928;-72
2022/01/18 01:04:47;;;;;;;;;;;;;;;-8.37;77.73;100928.75;5113398;28;19924;-73
2022/01/18 01:07:14;;;;;;;;;;;;;;;-8.37;78.19;100931.28;5113127;28;19950;-73
2022/01/18 01:09:42;;;;;;;;;;;;;;;-8.30;77.52;100938.16;5113108;28;19924;-73
2022/01/18 01:12:11;;;;;;;;;;;;;;;-8.28;77.86;100944.13;5113033;28;19938;-72
2022/01/18 01:14:37;;;;;;;;;;;;;;;-8.25;77.92;100950.91;5113046;28;20438;-73
2022/01/18 01:17:17;;;;;;;;;;;;;;;-8.31;78.64;100949.09;5112972;28;19924;-72
2022/01/18 01:32:10;;;;;;;;;;;;;;;-8.47;78.83;100936.94;5112856;28;19977;-73
2022/01/18 01:34:13;;;;;;;;;;;;;;;-8.35;78.27;100965.84;5052492;28;20455;-64
2022/01/18 01:42:27;;;;;;;;;;;;;;;-8.48;78.71;100980.66;5051974;28;20418;-65
2022/01/18 01:44:55;;;;;;;;;;;;;;;-8.52;79.11;100994.88;5052043;28;20028;-65
2022/01/18 01:47:32;;;;;;;;;;;;;;;-8.51;78.99;101001.59;5052026;28;20019;-65
2022/01/18 01:49:58;;;;;;;;;;;;;;;-8.52;78.67;101004.09;5052082;28;19939;-65
2022/01/18 01:52:25;;;;;;;;;;;;;;;-8.51;78.61;101005.81;5052028;28;19924;-69
2022/01/18 01:54:54;;;;;;;;;;;;;;;-8.52;78.63;101010.00;5052238;28;19979;-65
2022/01/18 01:57:23;;;;;;;;;;;;;;;-8.48;78.47;101010.91;5052049;28;19924;-65
2022/01/18 01:59:49;;;;;;;;;;;;;;;-8.56;78.91;101010.72;5051698;28;19933;-65
2022/01/18 02:02:16;;;;;;;;;;;;;;;-8.50;78.43;101010.03;5052084;28;19952;-65
2022/01/18 02:04:42;;;;;;;;;;;;;;;-8.49;78.79;101006.69;5052322;28;19932;-65
2022/01/18 02:07:09;;;;;;;;;;;;;;;-8.48;77.98;101010.91;5052995;28;19932;-65
2022/01/18 02:09:36;;;;;;;;;;;;;;;-8.58;78.78;101008.19;5055454;28;19925;-66
2022/01/18 02:12:02;;;;;;;;;;;;;;;-8.58;78.34;101024.97;5055494;28;19925;-65
2022/01/18 02:14:32;;;;;;;;;;;;;;;-8.61;78.60;101040.88;5055362;28;19924;-65
2022/01/18 02:22:28;;;;;;;;;;;;;;;-8.73;79.39;101058.22;5055317;28;20412;-65
2022/01/18 02:24:55;;;;;;;;;;;;;;;-8.89;79.59;101076.22;5055229;28;20333;-65
2022/01/18 02:27:22;;;;;;;;;;;;;;;-8.98;79.62;101072.63;5055317;28;19931;-65
2022/01/18 02:29:48;;;;;;;;;;;;;;;-8.91;79.29;101075.31;5055187;28;19924;-65
2022/01/18 02:32:15;;;;;;;;;;;;;;;-8.81;79.06;101068.06;5097148;22;19924;-71
2022/01/18 02:34:41;;;;;;;;;;;;;;;-8.96;79.59;101062.59;5095493;28;20025;-71
2022/01/18 02:37:10;;;;;;;;;;;;;;;-8.86;79.05;101066.22;5095220;28;19924;-71
2022/01/18 02:39:39;;;;;;;;;;;;;;;-9.00;79.61;101070.88;5095115;28;19928;-71
2022/01/18 02:42:06;;;;;;;;;;;;;;;-9.02;79.72;101072.47;5095414;28;19924;-71
2022/01/18 02:44:34;;;;;;;;;;;;;;;-9.17;80.38;101062.81;5095397;28;19924;-72
2022/01/18 02:47:01;;;;;;;;;;;;;;;-9.21;80.57;101056.81;5095150;28;19924;-70
2022/01/18 02:49:28;;;;;;;;;;;;;;;-9.32;80.18;101057.31;5095274;28;19924;-69
2022/01/18 02:51:55;;;;;;;;;;;;;;;-9.51;82.10;101055.88;5095273;28;19924;-70
2022/01/18 02:54:21;;;;;;;;;;;;;;;-9.54;81.54;101053.25;5094961;28;20278;-70
2022/01/18 02:56:54;;;;;;;;;;;;;;;-9.67;81.99;101049.50;5095064;28;19931;-70
2022/01/18 02:59:30;;;;;;;;;;;;;;;-9.63;82.03;101053.84;5094940;28;19931;-69
2022/01/18 03:04:41;;;;;;;;;;;;;;;-9.90;83.59;101064.72;5094815;28;19931;-71
2022/01/18 03:07:08;;;;;;;;;;;;;;;-9.92;83.64;101065.47;5095003;28;19943;-71
2022/01/18 03:09:35;;;;;;;;;;;;;;;-9.80;83.54;101070.06;5094990;28;19924;-71
2022/01/18 03:12:04;;;;;;;;;;;;;;;-9.92;83.83;101067.97;5094842;28;19924;-71
2022/01/18 03:14:30;;;;;;;;;;;;;;;-9.71;82.42;101077.91;5094827;28;19927;-71
2022/01/18 03:16:57;;;;;;;;;;;;;;;-9.79;82.72;101079.31;5094764;28;20026;-71
2022/01/18 03:19:23;;;;;;;;;;;;;;;-9.86;83.08;101074.09;5094495;28;19924;-71
2022/01/18 03:21:53;;;;;;;;;;;;;;;-9.90;83.60;101091.56;5094290;28;19935;-71
2022/01/18 03:24:43;;;;;;;;;;;;;;;-9.90;82.95;101081.47;5094427;28;20397;-71
2022/01/18 03:29:56;;;;;;;;;;;;;;;-9.76;83.44;101076.88;5094506;28;20420;-71
2022/01/18 03:32:23;;;;;;;;;;;;;;;-9.99;84.30;101078.66;5091719;22;19943;-65
2022/01/18 03:34:49;;;;;;;;;;;;;;;-9.97;83.96;101090.47;5074152;28;19929;-65
2022/01/18 03:37:16;;;;;;;;;;;;;;;-9.94;83.36;101088.09;5074012;28;19931;-65
2022/01/18 03:39:43;;;;;;;;;;;;;;;-9.99;83.72;101086.19;5073768;28;20379;-66
2022/01/18 03:44:57;;;;;;;;;;;;;;;-9.96;84.23;101097.25;5073786;28;19989;-65
2022/01/18 03:47:24;;;;;;;;;;;;;;;-10.01;85.21;101088.69;5073717;28;20020;-65
2022/01/18 03:49:50;;;;;;;;;;;;;;;-10.06;84.87;101082.63;5073767;28;19924;-65
2022/01/18 03:52:17;;;;;;;;;;;;;;;-10.01;85.33;101078.63;5073566;28;19924;-65
2022/01/18 03:54:47;;;;;;;;;;;;;;;-10.02;85.37;101079.41;5073785;28;19925;-65
2022/01/18 03:57:14;;;;;;;;;;;;;;;-10.12;85.29;101082.41;5073570;28;19952;-65
2022/01/18 03:59:40;;;;;;;;;;;;;;;-9.97;85.18;101082.06;5073536;28;19931;-65
2022/01/18 04:02:08;;;;;;;;;;;;;;;-9.89;85.62;101070.59;5073278;28;19924;-64
2022/01/18 04:04:35;;;;;;;;;;;;;;;-10.05;84.99;101081.81;5073518;28;19925;-67
2022/01/18 04:07:02;;;;;;;;;;;;;;;-10.06;85.06;101075.09;5073427;28;19924;-65
2022/01/18 04:09:28;;;;;;;;;;;;;;;-10.13;85.44;101081.56;5073186;28;20370;-65
2022/01/18 04:11:55;;;;;;;;;;;;;;;-10.40;86.20;101084.03;5073332;28;19924;-69
2022/01/18 04:14:23;;;;;;;;;;;;;;;-10.48;86.99;101070.31;5073349;28;20396;-65
2022/01/18 04:17:01;;;;;;;;;;;;;;;-10.59;87.46;101066.56;5073158;28;19932;-65
2022/01/18 04:27:43;;;;;;;;;;;;;;;-10.94;89.50;101068.66;5072903;28;19993;-65
2022/01/18 04:30:10;;;;;;;;;;;;;;;-11.05;90.02;101065.72;5072577;28;19996;-65
2022/01/18 04:32:37;;;;;;;;;;;;;;;-11.07;90.26;101069.84;5073193;28;19978;-65
2022/01/18 04:35:05;;;;;;;;;;;;;;;-10.98;90.24;101064.31;5072934;28;19928;-66
2022/01/18 04:37:32;;;;;;;;;;;;;;;-11.01;90.15;101065.06;5073068;28;19931;-65
2022/01/18 04:39:59;;;;;;;;;;;;;;;-10.73;89.28;101068.59;5072774;28;19933;-64
2022/01/18 04:42:38;;;;;;;;;;;;;;;-10.78;88.85;101075.09;5072461;28;19928;-65
2022/01/18 04:50:25;;;;;;;;;;;;;;;-10.50;87.43;101081.13;5072727;28;19948;-66
2022/01/18 04:52:53;;;;;;;;;;;;;;;-10.63;87.04;101082.34;5071948;28;21417;-65
2022/01/18 04:55:20;;;;;;;;;;;;;;;-11.05;88.90;101067.38;5073027;28;20298;-65
2022/01/18 04:57:53;;;;;;;;;;;;;;;-11.27;89.02;101064.06;5072698;28;19924;-65
2022/01/18 05:00:19;;;;;;;;;;;;;;;-11.41;90.47;101072.72;5072474;28;19925;-65
2022/01/18 05:02:47;;;;;;;;;;;;;;;-11.45;91.46;101059.19;5072260;28;19929;-65
2022/01/18 05:05:22;;;;;;;;;;;;;;;-11.44;91.12;101048.34;5072333;28;19978;-66
2022/01/18 05:07:52;;;;;;;;;;;;;;;-11.23;91.02;101045.78;5072489;28;19928;-69
2022/01/18 05:10:20;;;;;;;;;;;;;;;-11.35;91.10;101047.84;5072244;28;20371;-66
2022/01/18 05:12:50;;;;;;;;;;;;;;;-11.51;91.84;101046.38;5072317;28;19951;-65
2022/01/18 05:15:36;;;;;;;;;;;;;;;-11.56;92.06;101047.00;5072449;28;19928;-67
2022/01/18 05:21:09;;;;;;;;;;;;;;;-11.48;91.66;101045.66;5071292;28;19978;-65
2022/01/18 05:23:37;;;;;;;;;;;;;;;-11.00;88.64;101044.13;5072557;28;19970;-65
2022/01/18 05:26:04;;;;;;;;;;;;;;;-10.86;87.29;101059.75;5072319;28;20267;-65
2022/01/18 05:28:31;;;;;;;;;;;;;;;-11.07;86.01;101053.91;5072253;28;19928;-65
2022/01/18 05:30:57;;;;;;;;;;;;;;;-11.31;86.78;101052.19;5087416;22;19924;-71
2022/01/18 05:33:25;;;;;;;;;;;;;;;-11.48;87.14;101054.06;5092472;28;20290;-71
2022/01/18 05:35:52;;;;;;;;;;;;;;;-11.64;87.27;101057.59;5092500;28;19924;-71
2022/01/18 05:38:18;;;;;;;;;;;;;;;-12.00;88.08;101071.22;5092485;28;19928;-71
2022/01/18 05:40:46;;;;;;;;;;;;;;;-12.34;90.19;101069.81;5092614;28;19923;-71
2022/01/18 05:43:13;;;;;;;;;;;;;;;-12.14;90.18;101073.16;5096382;28;19961;-71
2022/01/18 05:45:39;;;;;;;;;;;;;;;-12.22;89.04;101069.47;5096584;28;19931;-70
2022/01/18 05:48:06;;;;;;;;;;;;;;;-12.59;90.56;101060.38;5096210;28;20374;-72
2022/01/18 05:50:33;;;;;;;;;;;;;;;-12.58;91.11;101059.59;5096119;28;19924;-71
2022/01/18 05:52:59;;;;;;;;;;;;;;;-12.22;89.06;101069.47;5096029;28;20400;-69
2022/01/18 05:55:27;;;;;;;;;;;;;;;-12.15;86.74;101067.28;5096153;28;19924;-69
2022/01/18 05:57:55;;;;;;;;;;;;;;;-12.47;86.79;101062.56;5095930;28;20366;-70
2022/01/18 06:00:23;;;;;;;;;;;;;;;-13.01;89.86;101065.22;5095972;28;19931;-69
2022/01/18 06:03:01;;;;;;;;;;;;;;;-12.93;89.59;101063.91;5095762;28;19975;-69
2022/01/18 06:08:12;;;;;;;;;;;;;;;-12.61;87.59;101062.81;5096082;28;19931;-72
2022/01/18 06:10:38;;;;;;;;;;;;;;;-12.58;87.38;101057.94;5095822;28;19924;-70
2022/01/18 06:13:08;;;;;;;;;;;;;;;-12.60;87.86;101061.16;5095913;28;19924;-70
2022/01/18 06:15:34;;;;;;;;;;;;;;;-12.67;87.90;101056.66;5095755;28;20275;-70
2022/01/18 06:18:01;;;;;;;;;;;;;;;-12.73;88.77;101054.75;5095598;28;19931;-71
2022/01/18 06:20:27;;;;;;;;;;;;;;;-12.99;89.82;101063.63;5095723;28;20370;-71
2022/01/18 06:22:54;;;;;;;;;;;;;;;-13.13;90.87;101064.66;5095408;28;19924;-71
2022/01/18 06:25:21;;;;;;;;;;;;;;;-12.97;90.82;101060.41;5095809;28;19932;-71
2022/01/18 06:27:48;;;;;;;;;;;;;;;-13.03;90.90;101064.28;5095588;28;19967;-71
2022/01/18 06:30:16;;;;;;;;;;;;;;;-13.08;91.82;101071.56;5095502;28;19931;-72
2022/01/18 06:32:44;;;;;;;;;;;;;;;-13.11;92.24;101073.09;5095830;28;19924;-73
2022/01/18 06:35:11;;;;;;;;;;;;;;;-13.11;92.18;101068.94;5095378;28;19924;-71
2022/01/18 06:37:38;;;;;;;;;;;;;;;-13.05;93.05;101061.69;5095544;28;19946;-71
2022/01/18 06:40:06;;;;;;;;;;;;;;;-12.93;92.80;101062.25;5095327;28;19924;-71
2022/01/18 06:42:32;;;;;;;;;;;;;;;-12.50;93.63;101068.28;5095145;28;19925;-71
2022/01/18 06:44:59;;;;;;;;;;;;;;;-12.26;94.64;101083.53;5095410;28;19931;-71
2022/01/18 06:47:27;;;;;;;;;;;;;;;-12.02;94.93;101083.72;5094973;28;19931;-71
2022/01/18 06:49:54;;;;;;;;;;;;;;;-11.81;94.77;101080.34;5095250;28;19924;-71
2022/01/18 06:52:20;;;;;;;;;;;;;;;-11.58;94.61;101079.59;5094493;28;19951;-71
2022/01/18 06:54:47;;;;;;;;;;;;;;;-11.46;95.09;101090.09;5094705;28;19931;-71
2022/01/18 06:57:14;;;;;;;;;;;;;;;-11.54;94.79;101083.09;5094968;28;19924;-72
2022/01/18 06:59:41;;;;;;;;;;;;;;;-11.54;95.91;101080.56;5094830;28;20374;-71
2022/01/18 07:02:07;;;;;;;;;;;;;;;-11.23;95.14;101075.09;5094878;28;19931;-76
2022/01/18 07:04:35;;;;;;;;;;;;;;;-11.13;94.87;101076.28;5091492;28;19924;-73
2022/01/18 07:07:02;;;;;;;;;;;;;;;-10.94;94.71;101073.69;5094390;28;19924;-75
2022/01/18 07:09:29;;;;;;;;;;;;;;;-10.66;93.56;101069.66;5093392;28;19924;-75
2022/01/18 07:11:56;;;;;;;;;;;;;;;-10.65;92.82;101058.81;5094473;28;19925;-74
2022/01/18 07:14:23;;;;;;;;;;;;;;;-11.05;88.90;101059.84;5094580;28;20336;-74
2022/01/18 07:16:50;;;;;;;;;;;;;;;-11.28;85.06;101064.84;5094603;28;19931;-75
2022/01/18 07:19:17;;;;;;;;;;;;;;;-11.70;83.96;101072.44;5093744;28;19932;-77
2022/01/18 07:21:46;;;;;;;;;;;;;;;-12.01;85.62;101072.03;5094298;28;19924;-76
2022/01/18 07:24:17;;;;;;;;;;;;;;;-12.21;85.58;101074.53;5094145;28;19924;-79
2022/01/18 07:26:46;;;;;;;;;;;;;;;-12.37;87.88;101069.69;5092723;28;19924;-74
2022/01/18 07:29:13;;;;;;;;;;;;;;;-12.60;89.14;101076.22;5093198;28;19924;-76
2022/01/18 07:31:39;;;;;;;;;;;;;;;-12.59;90.03;101073.75;5102883;28;19946;-75
2022/01/18 07:34:06;;;;;;;;;;;;;;;-12.76;90.09;101074.69;5103853;28;19928;-75
2022/01/18 07:36:32;;;;;;;;;;;;;;;-12.53;90.86;101065.66;5091612;28;19924;-76
2022/01/18 07:39:00;;;;;;;;;;;;;;;-12.39;89.26;101066.25;5093187;28;19925;-70
2022/01/18 07:41:27;;;;;;;;;;;;;;;-12.48;87.34;101060.81;5093343;28;20382;-75
2022/01/18 07:43:54;;;;;;;;;;;;;;;-12.65;86.23;101057.59;5091921;28;19924;-74
2022/01/18 07:46:20;;;;;;;;;;;;;;;-12.65;85.71;101055.94;5093107;28;19932;-75
2022/01/18 07:48:47;;;;;;;;;;;;;;;-12.88;83.88;101049.94;5092974;28;20386;-75
2022/01/18 07:51:15;;;;;;;;;;;;;;;-13.31;84.44;101062.19;5092419;28;20397;-75
2022/01/18 07:53:42;;;;;;;;;;;;;;;-13.42;85.60;101059.19;5100821;28;19966;-76
2022/01/18 07:56:11;;;;;;;;;;;;;;;-13.64;88.10;101058.19;5112189;28;19924;-76
2022/01/18 07:58:38;;;;;;;;;;;;;;;-13.57;89.54;101061.81;5113817;28;20434;-76
2022/01/18 08:01:05;;;;;;;;;;;;;;;-13.22;90.77;101065.94;5112466;28;20266;-74
2022/01/18 08:03:33;;;;;;;;;;;;;;;-13.13;89.62;101063.00;5109902;28;19923;-74
2022/01/18 08:06:00;;;;;;;;;;;;;;;-13.35;89.12;101062.84;5103354;28;20403;-73
2022/01/18 08:08:26;;;;;;;;;;;;;;;-13.35;90.94;101067.84;5093181;28;19935;-76
2022/01/18 08:10:53;;;;;;;;;;;;;;;-13.33;92.54;101064.63;5091283;28;20399;-75
2022/01/18 08:13:26;;;;;;;;;;;;;;;-13.26;93.35;101065.75;5095612;28;20361;-76
2022/01/18 08:15:58;;;;;;;;;;;;;;;-13.19;94.00;101056.06;5112936;28;20454;-76
2022/01/18 08:18:25;;;;;;;;;;;;;;;-13.07;94.35;101043.25;5112919;28;19924;-74
2022/01/18 08:20:52;;;;;;;;;;;;;;;-12.80;94.85;101046.09;5103203;28;19934;-75
2022/01/18 08:23:18;;;;;;;;;;;;;;;-12.43;93.40;101046.84;5110733;28;19931;-74
2022/01/18 08:25:45;;;;;;;;;;;;;;;-12.42;92.30;101061.09;5092773;28;20406;-75
2022/01/18 08:28:11;;;;;;;;;;;;;;;-12.62;90.40;101048.56;5096431;28;19928;-75
2022/01/18 08:30:42;;;;;;;;;;;;;;;-12.60;91.53;101031.94;5100130;28;19939;-72
2022/01/18 08:33:09;;;;;;;;;;;;;;;-12.35;87.65;101025.47;5098947;28;19924;-74
2022/01/18 08:35:37;;;;;;;;;;;;;;;-12.45;85.23;101015.84;5093086;28;19924;-75
2022/01/18 08:38:04;;;;;;;;;;;;;;;-12.68;86.03;101004.84;5091505;28;19985;-72
2022/01/18 08:40:31;;;;;;;;;;;;;;;-12.71;88.32;101003.06;5095138;28;19924;-77
2022/01/18 08:42:57;;;;;;;;;;;;;;;-12.75;88.87;100994.53;5102591;28;20290;-74
2022/01/18 08:45:24;;;;;;;;;;;;;;;-12.79;88.63;100984.31;5112612;28;19924;-74
2022/01/18 08:47:52;;;;;;;;;;;;;;;-12.80;87.97;100996.00;5111130;28;19923;-74
2022/01/18 08:50:19;;;;;;;;;;;;;;;-12.84;88.22;101006.69;5091906;28;20278;-75
2022/01/18 08:52:50;;;;;;;;;;;;;;;-12.78;89.84;101008.59;5091820;28;19924;-74
2022/01/18 08:55:17;;;;;;;;;;;;;;;-12.78;90.42;101016.13;5100479;28;19930;-73
2022/01/18 08:57:43;;;;;;;;;;;;;;;-12.69;89.62;101019.00;5111135;28;19928;-73
2022/01/18 09:00:10;;;;;;;;;;;;;;;-12.57;90.00;101011.16;5112256;28;20366;-72
2022/01/18 09:02:37;;;;;;;;;;;;;;;-12.53;89.90;101001.34;5112977;28;19923;-75
2022/01/18 09:05:05;;;;;;;;;;;;;;;-12.34;91.21;100997.94;5110927;28;19928;-74
2022/01/18 09:07:33;;;;;;;;;;;;;;;-12.35;91.53;100987.84;5110858;28;19924;-73
2022/01/18 09:10:05;;;;;;;;;;;;;;;-12.36;92.52;100981.09;5112181;28;19927;-75
2022/01/18 09:12:32;;;;;;;;;;;;;;;-12.30;93.87;100978.88;5111813;28;19931;-74
2022/01/18 09:15:00;;;;;;;;;;;;;;;-12.21;94.02;100980.88;5106456;28;20016;-75
2022/01/18 09:17:28;;;;;;;;;;;;;;;-12.09;94.22;100968.84;5095223;28;19931;-76
2022/01/18 09:19:54;;;;;;;;;;;;;;;-11.58;93.48;100963.22;5112174;28;19947;-75
2022/01/18 09:22:22;;;;;;;;;;;;;;;-11.34;90.41;100965.81;5115482;28;19946;-73
2022/01/18 09:24:49;;;;;;;;;;;;;;;-11.30;90.11;100955.06;5088852;28;19924;-74
2022/01/18 09:27:16;;;;;;;;;;;;;;;-11.53;90.48;100956.72;5095434;28;19924;-74
2022/01/18 09:29:45;;;;;;;;;;;;;;;-11.55;90.58;100950.81;5096802;28;19928;-74
2022/01/18 09:32:12;;;;;;;;;;;;;;;-11.35;91.69;100951.53;5094540;28;20035;-72
2022/01/18 09:34:39;;;;;;;;;;;;;;;-11.32;92.98;100947.50;5095198;28;19972;-74
2022/01/18 09:37:05;;;;;;;;;;;;;;;-11.22;92.74;100938.63;5095713;28;19925;-75
2022/01/18 09:39:33;;;;;;;;;;;;;;;-11.14;92.07;100933.91;5095952;28;20366;-72
2022/01/18 09:42:02;;;;;;;;;;;;;;;-11.09;92.29;100929.88;5090283;28;20015;-73
2022/01/18 09:44:29;;;;;;;;;;;;;;;-11.03;91.76;100920.88;5094963;28;19985;-74
2022/01/18 09:46:56;;;;;;;;;;;;;;;-10.67;92.72;100922.09;5095219;28;19931;-70
2022/01/18 09:49:24;;;;;;;;;;;;;;;-10.34;93.40;100923.22;5094952;28;19951;-74
2022/01/18 09:51:51;;;;;;;;;;;;;;;-10.16;93.57;100922.06;5094444;28;19977;-74
2022/01/18 09:54:18;;;;;;;;;;;;;;;-9.97;94.14;100913.41;5094836;28;19924;-74
2022/01/18 09:56:46;;;;;;;;;;;;;;;-9.84;93.32;100915.50;5094696;28;20029;-73
2022/01/18 09:59:12;;;;;;;;;;;;;;;-9.80;93.21;100914.78;5093167;28;19935;-74
2022/01/18 10:01:39;;;;;;;;;;;;;;;-9.58;92.85;100913.78;5093253;28;19924;-74
2022/01/18 10:04:17;;;;;;;;;;;;;;;-9.42;93.67;100905.84;5094902;28;19935;-73
2022/01/18 10:06:44;;;;;;;;;;;;;;;-9.19;94.37;100889.66;5095598;28;20449;-74
2022/01/18 10:09:11;;;;;;;;;;;;;;;-9.14;93.38;100903.22;5093941;28;19932;-74
2022/01/18 10:11:38;;;;;;;;;;;;;;;-8.93;94.05;100902.97;5094720;28;19931;-73
2022/01/18 10:14:19;;;;;;;;;;;;;;;-8.75;93.11;100890.81;5096050;28;19928;-73
2022/01/18 10:16:45;;;;;;;;;;;;;;;-8.63;93.18;100875.13;5092757;28;19924;-74
2022/01/18 10:19:13;;;;;;;;;;;;;;;-8.60;92.46;100881.13;5094531;28;19924;-75
2022/01/18 10:21:46;;;;;;;;;;;;;;;-8.51;93.02;100879.63;5094952;28;20008;-74
2022/01/18 10:24:15;;;;;;;;;;;;;;;-8.43;92.56;100880.66;5094648;28;20044;-75
2022/01/18 10:26:42;;;;;;;;;;;;;;;-8.37;92.38;100876.59;5093853;28;19931;-74
2022/01/18 10:29:12;;;;;;;;;;;;;;;-8.27;92.31;100870.09;5093673;28;19924;-74
2022/01/18 10:31:42;;;;;;;;;;;;;;;-8.18;92.89;100877.88;5095042;28;19924;-74
2022/01/18 10:34:14;;;;;;;;;;;;;;;-8.12;91.93;100870.47;5093042;28;19931;-76
2022/01/18 10:36:59;;;;;;;;;;;;;;;-8.02;92.62;100856.34;5093644;28;19931;-74
2022/01/18 10:39:27;;;;;;;;;;;;;;;-7.95;92.70;100840.53;5094158;28;20370;-74
2022/01/18 10:41:54;;;;;;;;;;;;;;;-7.96;92.44;100840.50;5094751;28;19935;-73
2022/01/18 10:44:23;;;;;;;;;;;;;;;-7.84;93.19;100833.16;5092596;28;19932;-74
2022/01/18 10:46:51;;;;;;;;;;;;;;;-7.76;92.69;100816.50;5094201;28;19928;-74
2022/01/18 10:49:31;;;;;;;;;;;;;;;-7.69;93.01;100820.84;5094395;28;19924;-77
2022/01/18 10:51:59;;;;;;;;;;;;;;;-7.63;93.11;100825.16;5092989;28;19931;-77
2022/01/18 10:54:34;;;;;;;;;;;;;;;-7.61;93.16;100828.59;5093156;28;19931;-75
2022/01/18 10:57:02;;;;;;;;;;;;;;;-7.64;92.88;100822.63;5093562;28;19931;-73
2022/01/18 10:59:30;;;;;;;;;;;;;;;-7.67;92.24;100814.16;5094849;28;19932;-75
2022/01/18 11:02:08;;;;;;;;;;;;;;;-7.71;92.78;100801.44;5093060;28;19977;-74
2022/01/18 11:04:35;;;;;;;;;;;;;;;-7.70;92.85;100791.38;5093350;28;19990;-73
2022/01/18 11:07:03;;;;;;;;;;;;;;;-7.73;92.54;100777.81;5093872;28;19924;-75
2022/01/18 11:09:30;;;;;;;;;;;;;;;-7.78;92.92;100774.31;5093216;28;19924;-76
2022/01/18 11:11:57;;;;;;;;;;;;;;;-7.84;92.79;100767.50;5092526;28;19924;-76
2022/01/18 11:14:25;;;;;;;;;;;;;;;-7.79;93.77;100778.53;5093919;28;19924;-75
2022/01/18 11:16:56;;;;;;;;;;;;;;;-7.76;93.01;100785.31;5093665;28;19924;-77
2022/01/18 11:19:35;;;;;;;;;;;;;;;-7.67;93.37;100777.94;5092760;28;20014;-75
2022/01/18 11:22:03;;;;;;;;;;;;;;;-7.61;93.24;100770.47;5092718;28;19978;-76
2022/01/18 11:24:31;;;;;;;;;;;;;;;-7.57;93.35;100751.19;5093317;28;19933;-75
2022/01/18 11:26:59;;;;;;;;;;;;;;;-7.59;92.89;100746.09;5093672;28;19931;-74
2022/01/18 11:29:26;;;;;;;;;;;;;;;-7.56;93.38;100733.50;5092297;28;19997;-77
2022/01/18 11:31:55;;;;;;;;;;;;;;;-7.54;93.34;100720.91;5093214;28;20279;-73
2022/01/18 11:34:28;;;;;;;;;;;;;;;-7.49;93.70;100719.31;5092838;28;20362;-77
2022/01/18 11:37:00;;;;;;;;;;;;;;;-7.47;93.57;100715.97;5093143;28;19935;-77
2022/01/18 11:39:30;;;;;;;;;;;;;;;-7.46;93.47;100699.97;5091802;28;19924;-76
2022/01/18 11:42:05;;;;;;;;;;;;;;;-7.38;93.74;100691.69;5092639;28;19924;-77
2022/01/18 11:44:32;;;;;;;;;;;;;;;-7.34;93.92;100678.28;5093668;28;19924;-70
2022/01/18 11:47:00;;;;;;;;;;;;;;;-7.25;94.28;100674.22;5091591;28;19925;-75
2022/01/18 11:49:28;;;;;;;;;;;;;;;-7.21;93.99;100661.63;5092113;28;19924;-76
2022/01/18 11:51:58;;;;;;;;;;;;;;;-7.15;94.18;100649.09;5093056;28;19924;-75
2022/01/18 11:54:29;;;;;;;;;;;;;;;-7.11;94.15;100655.91;5093464;28;19939;-71
2022/01/18 11:56:56;;;;;;;;;;;;;;;-7.11;93.96;100644.09;5091819;28;19924;-74
2022/01/18 11:59:25;;;;;;;;;;;;;;;-7.09;93.92;100650.03;5092685;28;19931;-75
2022/01/18 12:01:53;;;;;;;;;;;;;;;-7.05;94.07;100638.28;5093001;28;20381;-73
2022/01/18 12:04:38;;;;;;;;;;;;;;;-7.05;93.75;100633.22;5091577;28;19931;-75
2022/01/18 12:07:06;;;;;;;;;;;;;;;-7.02;93.46;100641.69;5091984;28;19935;-72
2022/01/18 12:09:39;;;;;;;;;;;;;;;-7.00;93.35;100631.59;5092204;28;19931;-74
2022/01/18 12:12:09;;;;;;;;;;;;;;;-7.01;93.76;100618.13;5093142;28;20374;-73
2022/01/18 12:14:35;;;;;;;;;;;;;;;-7.02;94.04;100602.91;5091189;28;20356;-73
2022/01/18 12:17:13;;;;;;;;;;;;;;;-6.98;93.71;100602.13;5091979;28;19924;-74
2022/01/18 12:19:44;;;;;;;;;;;;;;;-6.95;94.19;100594.59;5092547;28;19931;-75
2022/01/18 12:22:12;;;;;;;;;;;;;;;-6.91;94.62;100590.41;5091516;28;20105;-74
2022/01/18 12:24:41;;;;;;;;;;;;;;;-6.84;94.49;100582.06;5091375;28;19931;-74
2022/01/18 12:27:33;;;;;;;;;;;;;;;-6.80;94.08;100579.59;5091860;28;19963;-74
2022/01/18 12:30:26;;;;;;;;;;;;;;;-6.77;93.98;100572.91;5057790;28;20366;-73
2022/01/18 12:33:08;;;;;;;;;;;;;;;-6.78;94.33;100567.00;5090575;28;20370;-73
2022/01/18 12:35:34;;;;;;;;;;;;;;;-6.69;94.63;100561.19;5084265;28;19924;-74
2022/01/18 12:38:06;;;;;;;;;;;;;;;-6.66;94.00;100554.47;5092145;28;19931;-73
2022/01/18 12:40:33;;;;;;;;;;;;;;;-6.61;94.07;100546.94;5091060;28;19931;-70
2022/01/18 12:45:46;;;;;;;;;;;;;;;-6.57;94.28;100530.97;5091694;28;19931;-74
2022/01/18 12:48:14;;;;;;;;;;;;;;;-6.50;93.86;100522.56;5092832;28;19924;-74
2022/01/18 12:50:41;;;;;;;;;;;;;;;-6.47;93.82;100521.75;5090561;28;19969;-74
2022/01/18 12:53:10;;;;;;;;;;;;;;;-6.44;93.63;100520.13;5091134;28;19924;-72
2022/01/18 12:55:40;;;;;;;;;;;;;;;-6.48;93.62;100505.72;5091880;28;20293;-74
2022/01/18 12:58:08;;;;;;;;;;;;;;;-6.50;93.75;100504.84;5092278;28;19928;-75
2022/01/18 13:00:39;;;;;;;;;;;;;;;-6.49;93.66;100504.03;5089975;28;19924;-75
2022/01/18 13:03:05;;;;;;;;;;;;;;;-6.48;93.68;100500.66;5091856;28;19931;-74
2022/01/18 13:05:36;;;;;;;;;;;;;;;-6.45;93.81;100494.78;5091713;28;19924;-72
2022/01/18 13:08:04;;;;;;;;;;;;;;;-6.44;93.71;100492.28;5091223;28;19924;-74
2022/01/18 13:10:35;;;;;;;;;;;;;;;-6.47;93.55;100481.25;5090423;28;20298;-73
2022/01/18 13:13:02;;;;;;;;;;;;;;;-6.41;93.89;100477.13;5091436;28;19924;-73
2022/01/18 13:15:40;;;;;;;;;;;;;;;-6.41;94.02;100469.53;5091683;28;19928;-74
2022/01/18 13:24:02;;;;;;;;;;;;;;;-6.35;93.46;100468.72;5092149;28;19924;-75
2022/01/18 13:26:33;;;;;;;;;;;;;;;-6.38;93.65;100454.34;5089989;28;19924;-74
2022/01/18 13:29:13;;;;;;;;;;;;;;;-6.35;93.95;100444.25;5091593;28;19924;-75
2022/01/18 13:31:41;;;;;;;;;;;;;;;-6.33;93.44;100449.34;5097288;28;19924;-75
2022/01/18 13:34:11;;;;;;;;;;;;;;;-6.32;93.64;100440.06;5109761;28;19924;-74
2022/01/18 13:36:51;;;;;;;;;;;;;;;-6.28;93.77;100446.84;5089738;28;20429;-70
2022/01/18 13:39:23;;;;;;;;;;;;;;;-6.26;93.81;100432.53;5091146;28;20385;-73
2022/01/18 13:41:51;;;;;;;;;;;;;;;-6.26;93.83;100424.94;5092079;28;19932;-73